Time;durP1;ratioP1;P1;durP2;ratioP2;P2;SDS_P1;SDS_P2;PMS_P1;PMS_P2;Temp;Humidity;BMP_temperature;BMP_pressure;BME280_temperature;BME280_humidity;BME280_pressure;Samples;Min_cycle;Max_cycle;Signal;HPM_P1;HPM_P2
2023/10/13 00:01:26;;;;;;;13.30;5.10;;;12.70;1.00;;;;;;5093135;28;20910;-51
2023/10/13 00:03:53;;;;;;;16.90;5.07;;;12.80;99.90;;;;;;5093295;28;20414;-50
2023/10/13 00:06:19;;;;;;;9.63;5.23;;;12.80;99.90;;;;;;5093418;28;20276;-51
2023/10/13 00:08:45;;;;;;;16.93;5.10;;;12.90;99.90;;;;;;5093061;28;20509;-51
2023/10/13 00:11:12;;;;;;;14.30;5.70;;;12.90;99.90;;;;;;5093122;28;20195;-50
2023/10/13 00:13:50;;;;;;;11.70;5.50;;;12.80;1.00;;;;;;5093151;28;20413;-50
2023/10/13 00:16:18;;;;;;;14.07;5.60;;;12.80;1.00;;;;;;5093336;28;20512;-50
2023/10/13 00:18:43;;;;;;;12.90;6.60;;;12.90;99.90;;;;;;5093041;28;20516;-50
2023/10/13 00:21:13;;;;;;;22.37;7.63;;;12.90;5.70;;;;;;5093003;28;20502;-50
2023/10/13 00:23:52;;;;;;;16.37;6.80;;;13.00;99.90;;;;;;5093054;28;20424;-51
2023/10/13 00:26:28;;;;;;;21.77;7.10;;;12.90;99.90;;;;;;5093224;28;20494;-50
2023/10/13 00:31:36;;;;;;;18.80;7.70;;;12.90;1.00;;;;;;5095468;28;20397;-50
2023/10/13 00:37:11;;;;;;;16.30;8.37;;;12.90;1.00;;;;;;5096675;28;20528;-50
2023/10/13 00:39:36;;;;;;;19.60;8.40;;;13.00;14.80;;;;;;5096443;28;20805;-50
2023/10/13 00:42:07;;;;;;;24.63;7.60;;;12.90;64.00;;;;;;5095135;28;20769;-50
2023/10/13 00:44:41;;;;;;;16.17;6.77;;;12.90;99.90;;;;;;5096789;28;20466;-50
2023/10/13 00:47:09;;;;;;;19.93;7.87;;;12.90;99.90;;;;;;5096423;28;20403;-51
2023/10/13 00:49:39;;;;;;;27.67;8.57;;;13.00;99.90;;;;;;5096684;28;20422;-50
2023/10/13 00:52:10;;;;;;;24.13;9.07;;;13.00;99.90;;;;;;5096596;28;20760;-51
2023/10/13 00:54:37;;;;;;;23.93;8.63;;;13.00;99.90;;;;;;5096624;28;20465;-52
2023/10/13 00:57:26;;;;;;;23.33;8.27;;;13.10;99.90;;;;;;5096445;28;20505;-50
2023/10/13 00:59:51;;;;;;;19.03;8.70;;;13.10;99.90;;;;;;5096017;28;20431;-50
2023/10/13 01:05:00;;;;;;;19.00;8.57;;;13.10;99.90;;;;;;5096633;28;20398;-49
2023/10/13 01:07:26;;;;;;;25.87;8.63;;;13.10;99.90;;;;;;5095925;28;20779;-50
2023/10/13 01:09:52;;;;;;;24.50;9.53;;;13.00;99.90;;;;;;5096007;28;20179;-49
2023/10/13 01:12:17;;;;;;;19.70;8.47;;;13.00;99.90;;;;;;5096103;28;20185;-49
2023/10/13 01:14:44;;;;;;;23.23;8.53;;;13.10;99.90;;;;;;5095939;28;20188;-49
2023/10/13 01:17:10;;;;;;;24.37;10.07;;;13.10;99.90;;;;;;5096259;28;20237;-49
2023/10/13 01:19:42;;;;;;;19.10;9.33;;;13.10;99.90;;;;;;5096299;28;20487;-49
2023/10/13 01:22:09;;;;;;;25.80;10.13;;;13.10;99.90;;;;;;5095666;28;20433;-48
2023/10/13 01:24:35;;;;;;;23.10;10.40;;;13.10;99.90;;;;;;5095766;28;20475;-49
2023/10/13 01:27:25;;;;;;;26.30;10.20;;;13.10;99.90;;;;;;5095600;28;20419;-49
2023/10/13 01:29:55;;;;;;;30.43;11.00;;;13.10;99.90;;;;;;5095423;28;20261;-50
2023/10/13 01:32:23;;;;;;;25.60;10.77;;;13.10;99.90;;;;;;5095560;28;20777;-50
2023/10/13 01:34:49;;;;;;;24.73;9.90;;;13.10;99.90;;;;;;5095613;28;20423;-49
2023/10/13 01:37:19;;;;;;;25.30;10.10;;;13.10;99.90;;;;;;5095748;28;20407;-49
2023/10/13 01:39:47;;;;;;;29.30;10.40;;;13.10;99.90;;;;;;5095831;28;20419;-49
2023/10/13 01:42:19;;;;;;;26.57;11.13;;;13.10;99.90;;;;;;5095122;28;20411;-49
2023/10/13 01:44:45;;;;;;;30.00;11.40;;;13.10;99.90;;;;;;5095447;28;20431;-49
2023/10/13 01:47:12;;;;;;;34.23;11.70;;;13.10;99.90;;;;;;5095072;28;20521;-49
2023/10/13 01:49:42;;;;;;;27.23;11.83;;;13.20;99.90;;;;;;5095416;28;20254;-50
2023/10/13 01:52:11;;;;;;;34.17;12.70;;;13.20;99.90;;;;;;5095571;28;20481;-49
2023/10/13 01:54:41;;;;;;;33.77;12.23;;;13.20;99.90;;;;;;5095211;28;20903;-49
2023/10/13 01:57:08;;;;;;;36.20;12.17;;;13.20;99.90;;;;;;5095235;28;20470;-49
2023/10/13 01:59:38;;;;;;;33.83;13.40;;;13.20;99.90;;;;;;5094949;28;20775;-50
2023/10/13 02:02:04;;;;;;;33.77;12.97;;;13.30;99.90;;;;;;5095423;28;20415;-50
2023/10/13 02:04:42;;;;;;;35.57;12.50;;;13.30;99.90;;;;;;5094967;28;20446;-49
2023/10/13 02:07:08;;;;;;;39.37;12.77;;;13.30;99.90;;;;;;5095427;28;20782;-50
2023/10/13 02:09:36;;;;;;;34.40;12.90;;;13.30;99.90;;;;;;5094946;28;20438;-49
2023/10/13 02:12:03;;;;;;;36.73;14.00;;;13.30;99.90;;;;;;5095104;28;20476;-49
2023/10/13 02:14:28;;;;;;;30.00;12.50;;;13.30;99.90;;;;;;5094899;28;20480;-50
2023/10/13 02:17:12;;;;;;;32.57;13.90;;;13.30;99.90;;;;;;5094632;28;20850;-50
2023/10/13 02:19:45;;;;;;;38.23;13.87;;;13.30;99.90;;;;;;5094680;28;20169;-49
2023/10/13 02:22:11;;;;;;;36.13;13.30;;;13.50;99.90;;;;;;5094846;28;20416;-50
2023/10/13 02:24:40;;;;;;;37.93;14.13;;;13.50;99.90;;;;;;5094230;28;20570;-49
2023/10/13 02:27:13;;;;;;;34.87;14.57;;;13.40;99.90;;;;;;5094743;28;20420;-49
2023/10/13 02:29:45;;;;;;;40.63;14.50;;;13.40;99.90;;;;;;5094383;28;20407;-49
2023/10/13 02:32:18;;;;;;;42.93;14.07;;;13.40;99.90;;;;;;5094878;28;20740;-49
2023/10/13 02:34:45;;;;;;;33.97;14.40;;;13.40;99.90;;;;;;5094625;28;20435;-49
2023/10/13 02:37:12;;;;;;;46.20;15.57;;;13.50;99.90;;;;;;5094164;28;20479;-49
2023/10/13 02:39:41;;;;;;;31.60;14.23;;;13.50;99.90;;;;;;5094309;28;20516;-49
2023/10/13 02:42:07;;;;;;;40.40;16.90;;;13.50;99.90;;;;;;5094276;28;20411;-49
2023/10/13 02:44:36;;;;;;;40.50;15.93;;;13.50;99.90;;;;;;5093139;28;20432;-49
2023/10/13 02:47:14;;;;;;;39.50;16.30;;;13.50;99.90;;;;;;5094426;28;20504;-49
2023/10/13 02:49:43;;;;;;;42.23;15.33;;;13.60;99.90;;;;;;5094569;28;20415;-48
2023/10/13 02:52:09;;;;;;;42.27;16.17;;;13.50;99.90;;;;;;5094313;28;20419;-49
2023/10/13 02:55:10;;;;;;;37.43;17.20;;;13.60;99.90;;;;;;5093605;28;20427;-48
2023/10/13 02:57:28;;;;;;;37.83;15.40;;;13.60;99.90;;;;;;5092777;28;20427;-48
2023/10/13 03:00:11;;;;;;;41.33;14.73;;;13.60;99.90;;;;;;5093830;28;20911;-48
2023/10/13 03:02:43;;;;;;;38.77;16.67;;;13.60;99.90;;;;;;5094200;28;20191;-48
2023/10/13 03:05:09;;;;;;;47.40;15.90;;;13.60;99.90;;;;;;5094299;28;20872;-49
2023/10/13 03:07:36;;;;;;;34.33;14.70;;;13.60;99.90;;;;;;5093846;28;20416;-48
2023/10/13 03:10:09;;;;;;;37.37;16.80;;;13.60;99.90;;;;;;5094005;28;20223;-48
2023/10/13 03:12:36;;;;;;;32.80;15.37;;;13.60;99.90;;;;;;5094280;28;20399;-48
2023/10/13 03:15:17;;;;;;;42.20;15.33;;;13.70;99.90;;;;;;5093746;28;20435;-49
2023/10/13 03:17:43;;;;;;;39.20;15.63;;;13.60;99.90;;;;;;5093892;28;20410;-50
2023/10/13 03:20:15;;;;;;;37.17;16.07;;;13.70;99.90;;;;;;5093926;28;20484;-48
2023/10/13 03:22:44;;;;;;;45.80;16.77;;;13.70;99.90;;;;;;5093783;28;20989;-49
2023/10/13 03:25:23;;;;;;;36.87;15.97;;;13.70;99.90;;;;;;5093381;28;20571;-48
2023/10/13 03:30:20;;;;;;;38.10;17.50;;;13.70;99.90;;;;;;5093702;28;20418;-49
2023/10/13 03:32:54;;;;;;;44.77;18.20;;;13.70;99.90;;;;;;5093480;28;20408;-49
2023/10/13 03:35:37;;;;;;;34.47;16.80;;;13.80;99.90;;;;;;5093485;28;20459;-48
2023/10/13 03:38:03;;;;;;;32.13;15.07;;;13.80;99.90;;;;;;5094018;28;20403;-48
2023/10/13 03:43:11;;;;;;;33.43;15.87;;;13.80;99.90;;;;;;5093829;28;21121;-50
2023/10/13 03:45:42;;;;;;;40.40;16.53;;;13.80;99.90;;;;;;5093306;28;20195;-48
2023/10/13 03:51:14;;;;;;;33.53;15.13;;;13.80;99.90;;;;;;5093864;28;20399;-51
2023/10/13 03:53:53;;;;;;;32.37;14.63;;;13.80;99.90;;;;;;5093652;28;20407;-48
2023/10/13 03:56:38;;;;;;;28.13;13.77;;;13.80;99.90;;;;;;5093406;28;20491;-50
2023/10/13 03:59:06;;;;;;;29.73;13.90;;;13.80;99.90;;;;;;5093664;28;20442;-48
2023/10/13 04:01:45;;;;;;;28.33;14.33;;;13.80;99.90;;;;;;5093491;28;20415;-48
2023/10/13 04:04:11;;;;;;;28.77;13.90;;;13.90;99.90;;;;;;5093168;28;20410;-49
2023/10/13 04:17:27;;;;;;;25.23;13.67;;;14.00;99.90;;;;;;5097280;28;20394;-49
2023/10/13 04:33:35;;;;;;;20.93;12.40;;;14.10;99.90;;;;;;5097262;28;20408;-48
2023/10/13 04:36:16;;;;;;;32.63;14.40;;;14.10;99.90;;;;;;5096743;28;20946;-49
2023/10/13 04:38:56;;;;;;;28.03;13.60;;;14.10;99.90;;;;;;5096795;28;20419;-48
2023/10/13 04:41:43;;;;;;;26.77;13.90;;;14.10;99.90;;;;;;5096845;28;20404;-48
2023/10/13 04:47:07;;;;;;;33.33;16.50;;;14.20;99.90;;;;;;5096931;28;20533;-48
2023/10/13 04:54:45;;;;;;;49.73;25.10;;;14.40;99.90;;;;;;5096744;28;20500;-49
2023/10/13 05:02:55;;;;;;;65.33;34.10;;;14.90;99.90;;;;;;5096489;28;20453;-48
2023/10/13 05:51:43;;;;;;;57.43;33.10;;;15.90;99.90;;;;;;5095454;28;20174;-48
2023/10/13 06:29:54;;;;;;;55.00;32.60;;;16.20;99.90;;;;;;5093943;28;20440;-52
2023/10/13 06:32:25;;;;;;;54.43;32.70;;;16.20;99.90;;;;;;5094286;28;20803;-48
2023/10/13 06:34:57;;;;;;;56.63;32.50;;;16.20;99.90;;;;;;5094655;28;20265;-49
2023/10/13 06:39:57;;;;;;;55.30;31.47;;;16.30;99.90;;;;;;5094683;28;20405;-48
2023/10/13 06:42:27;;;;;;;54.77;32.60;;;16.30;99.90;;;;;;5094501;28;20432;-49
2023/10/13 06:44:56;;;;;;;53.90;32.20;;;16.30;99.90;;;;;;5094837;28;20426;-48
2023/10/13 06:47:24;;;;;;;58.67;32.77;;;16.40;99.90;;;;;;5094352;28;20434;-49
2023/10/13 06:49:54;;;;;;;55.93;33.17;;;16.40;99.90;;;;;;5094588;28;20411;-49
2023/10/13 06:52:22;;;;;;;54.63;33.30;;;16.30;99.90;;;;;;5094680;28;20434;-49
2023/10/13 06:54:50;;;;;;;57.20;34.50;;;16.30;99.90;;;;;;5094376;28;20424;-48
2023/10/13 06:57:20;;;;;;;56.67;32.13;;;16.40;99.90;;;;;;5094142;28;20953;-49
2023/10/13 06:59:46;;;;;;;58.00;33.77;;;16.40;99.90;;;;;;5094442;28;20506;-48
2023/10/13 07:02:21;;;;;;;56.83;33.07;;;16.40;99.90;;;;;;5094087;28;20420;-49
2023/10/13 07:04:47;;;;;;;52.80;33.30;;;16.50;99.90;;;;;;5094154;28;20423;-48
2023/10/13 07:07:15;;;;;;;53.07;33.53;;;16.50;99.90;;;;;;5093749;28;20445;-49
2023/10/13 07:09:51;;;;;;;55.70;33.00;;;16.50;99.90;;;;;;5093762;28;20449;-49
2023/10/13 07:12:26;;;;;;;54.07;33.40;;;16.50;99.90;;;;;;5093139;28;20431;-49
2023/10/13 07:14:52;;;;;;;49.50;31.53;;;16.60;99.90;;;;;;5094027;28;20413;-49
2023/10/13 07:17:25;;;;;;;55.37;35.07;;;16.60;99.90;;;;;;5094080;28;20464;-48
2023/10/13 07:19:56;;;;;;;46.80;29.50;;;16.60;99.90;;;;;;5094233;28;20408;-49
2023/10/13 07:22:23;;;;;;;54.67;33.67;;;16.60;99.90;;;;;;5093422;28;20879;-49
2023/10/13 07:24:50;;;;;;;46.70;30.40;;;16.60;99.90;;;;;;5093683;28;20563;-48
2023/10/13 07:27:23;;;;;;;50.17;30.07;;;16.60;99.90;;;;;;5093534;28;20418;-49
2023/10/13 07:32:36;;;;;;;46.60;31.13;;;16.70;99.90;;;;;;5094091;28;20454;-49
2023/10/13 07:35:07;;;;;;;39.67;27.23;;;16.70;99.90;;;;;;5093619;28;20414;-49
2023/10/13 07:37:33;;;;;;;39.07;27.30;;;16.70;99.90;;;;;;5093820;28;20177;-49
2023/10/13 07:39:59;;;;;;;38.33;28.20;;;16.70;99.90;;;;;;5096575;28;20445;-49
2023/10/13 07:42:31;;;;;;;40.30;29.10;;;16.60;99.90;;;;;;5100508;28;20978;-50
2023/10/13 07:44:58;;;;;;;37.70;25.83;;;16.60;99.90;;;;;;5100381;28;20187;-49
2023/10/13 07:47:26;;;;;;;35.30;23.77;;;16.60;99.90;;;;;;5100053;28;20478;-49
2023/10/13 07:49:52;;;;;;;28.90;23.10;;;16.60;99.90;;;;;;5100193;28;20418;-49
2023/10/13 07:54:59;;;;;;;30.20;21.67;;;16.60;99.90;;;;;;5100182;28;20200;-49
2023/10/13 07:57:29;;;;;;;25.90;20.20;;;16.70;99.90;;;;;;5100358;28;20452;-48
2023/10/13 08:00:11;;;;;;;28.80;20.33;;;16.70;99.90;;;;;;5100175;28;20433;-48
2023/10/13 08:02:48;;;;;;;30.10;19.50;;;16.70;99.90;;;;;;5099851;28;20752;-48
2023/10/13 08:05:24;;;;;;;28.13;19.50;;;16.60;99.90;;;;;;5100135;28;20760;-48
2023/10/13 08:07:52;;;;;;;27.50;19.20;;;16.60;99.90;;;;;;5100153;28;20411;-48
2023/10/13 08:10:18;;;;;;;24.40;16.63;;;16.70;99.90;;;;;;5099785;28;20412;-49
2023/10/13 08:12:46;;;;;;;21.10;16.90;;;16.70;99.90;;;;;;5099910;28;20435;-49
2023/10/13 08:15:20;;;;;;;25.60;15.80;;;16.60;99.90;;;;;;5099894;28;20187;-49
2023/10/13 08:17:46;;;;;;;22.27;15.70;;;16.60;99.90;;;;;;5100355;28;20414;-48
2023/10/13 08:20:12;;;;;;;21.87;15.43;;;16.60;99.90;;;;;;5100186;28;20477;-48
2023/10/13 08:22:39;;;;;;;20.13;15.90;;;16.60;99.90;;;;;;5099989;28;20180;-48
2023/10/13 08:30:27;;;;;;;20.60;15.30;;;16.60;99.90;;;;;;5099706;28;20421;-50
2023/10/13 08:32:59;;;;;;;21.70;16.77;;;16.60;99.90;;;;;;5099944;28;20890;-48
2023/10/13 08:35:34;;;;;;;20.80;16.60;;;16.60;99.90;;;;;;5100250;28;20462;-47
2023/10/13 08:38:04;;;;;;;22.57;16.93;;;16.60;99.90;;;;;;5100227;28;20849;-48
2023/10/13 08:43:14;;;;;;;15.93;13.03;;;16.60;99.90;;;;;;5100137;28;20866;-48
2023/10/13 08:48:14;;;;;;;15.10;11.67;;;16.50;99.90;;;;;;5100228;28;20170;-48
2023/10/13 08:53:47;;;;;;;14.20;11.77;;;16.50;99.90;;;;;;5096377;28;20394;-49
2023/10/13 09:09:28;;;;;;;12.67;11.10;;;16.60;99.90;;;;;;5096379;28;20416;-51
2023/10/13 09:12:09;;;;;;;15.10;11.80;;;16.70;99.90;;;;;;5096512;28;20897;-48
2023/10/13 09:14:43;;;;;;;15.10;11.80;;;16.70;99.90;;;;;;5096414;28;20416;-49
2023/10/13 09:17:12;;;;;;;13.53;9.90;;;16.70;99.90;;;;;;5096103;28;20460;-49
2023/10/13 09:19:56;;;;;;;13.57;9.80;;;16.80;99.90;;;;;;5095867;28;20459;-50
2023/10/13 09:22:27;;;;;;;11.97;9.90;;;16.90;99.90;;;;;;5095766;28;20906;-50
2023/10/13 09:25:00;;;;;;;12.63;9.70;;;16.90;99.90;;;;;;5095597;28;20476;-50
2023/10/13 09:27:32;;;;;;;16.20;10.10;;;17.00;99.90;;;;;;5095580;28;20417;-50
2023/10/13 09:30:23;;;;;;;11.30;9.90;;;17.10;99.90;;;;;;5096177;28;20406;-50
2023/10/13 09:33:14;;;;;;;21.43;10.60;;;17.20;99.90;;;;;;5095742;28;20742;-50
2023/10/13 09:35:49;;;;;;;14.30;9.17;;;17.20;99.90;;;;;;5095941;28;20810;-49
2023/10/13 09:38:15;;;;;;;13.37;8.97;;;17.30;99.90;;;;;;5095926;28;20422;-51
2023/10/13 09:40:49;;;;;;;10.50;7.90;;;17.40;99.90;;;;;;5095565;28;20419;-50
2023/10/13 09:43:18;;;;;;;13.90;8.73;;;17.50;99.90;;;;;;5095378;28;20403;-51
2023/10/13 09:48:36;;;;;;;14.40;7.57;;;17.50;99.90;;;;;;5095272;28;20889;-50
2023/10/13 09:51:09;;;;;;;13.17;8.10;;;17.50;99.90;;;;;;5095796;28;20433;-51
2023/10/13 09:53:38;;;;;;;16.03;8.00;;;17.50;99.90;;;;;;5095694;28;20414;-51
2023/10/13 09:56:19;;;;;;;11.60;7.03;;;17.50;99.90;;;;;;5095422;28;20794;-51
2023/10/13 09:59:12;;;;;;;14.90;7.73;;;17.40;99.90;;;;;;5093743;28;20779;-50
2023/10/13 10:01:51;;;;;;;14.93;7.87;;;17.40;99.90;;;;;;5095163;28;20883;-51
2023/10/13 10:04:19;;;;;;;22.03;8.47;;;17.40;99.90;;;;;;5094840;28;20395;-52
2023/10/13 10:06:54;;;;;;;10.07;7.17;;;17.50;99.90;;;;;;5095201;28;20422;-51
2023/10/13 10:09:34;;;;;;;14.53;7.23;;;17.40;99.90;;;;;;5095240;28;20414;-51
2023/10/13 10:12:37;;;;;;;11.63;7.60;;;17.40;99.90;;;;;;5094905;28;20426;-51
2023/10/13 10:15:35;;;;;;;18.20;7.60;;;17.40;99.90;;;;;;5094821;28;20419;-51
2023/10/13 10:18:02;;;;;;;15.87;8.27;;;17.40;99.90;;;;;;5094938;28;20482;-51
2023/10/13 10:20:43;;;;;;;13.20;8.30;;;17.40;99.90;;;;;;5094861;28;20749;-51
2023/10/13 10:23:21;;;;;;;11.90;7.50;;;17.40;99.90;;;;;;5094897;28;20481;-51
2023/10/13 10:25:51;;;;;;;13.00;7.87;;;17.40;99.90;;;;;;5094776;28;20486;-51
2023/10/13 10:28:19;;;;;;;14.37;8.37;;;17.50;99.90;;;;;;5094611;28;20499;-53
2023/10/13 10:30:45;;;;;;;16.43;7.83;;;17.50;99.90;;;;;;5094632;28;20448;-50
2023/10/13 10:33:15;;;;;;;15.30;7.87;;;17.60;99.90;;;;;;5094752;28;20429;-50
2023/10/13 10:35:58;;;;;;;17.67;8.40;;;17.70;99.90;;;;;;5094288;28;20841;-51
2023/10/13 10:38:24;;;;;;;10.90;8.20;;;17.80;99.90;;;;;;5094303;28;20431;-51
2023/10/13 10:41:03;;;;;;;13.83;7.77;;;17.90;99.90;;;;;;5094476;28;20467;-50
2023/10/13 10:43:41;;;;;;;12.60;7.30;;;17.90;99.90;;;;;;5094553;28;20941;-52
2023/10/13 10:46:11;;;;;;;18.23;8.40;;;18.00;99.90;;;;;;5094661;28;20392;-52
2023/10/13 10:48:43;;;;;;;11.77;8.30;;;18.10;99.90;;;;;;5094478;28;20461;-51
2023/10/13 10:51:22;;;;;;;12.70;8.80;;;18.20;99.90;;;;;;5094372;28;20460;-51
2023/10/13 10:53:50;;;;;;;17.23;8.03;;;18.30;99.90;;;;;;5094667;28;20414;-51
2023/10/13 10:56:22;;;;;;;12.87;8.13;;;18.40;99.90;;;;;;5093856;28;20520;-51
2023/10/13 10:58:54;;;;;;;11.30;7.43;;;18.40;99.90;;;;;;5093868;28;20450;-52
2023/10/13 11:01:21;;;;;;;17.07;8.70;;;18.40;99.90;;;;;;5094137;28;20405;-52
2023/10/13 11:03:57;;;;;;;19.27;8.73;;;18.50;99.90;;;;;;5094053;28;20506;-51
2023/10/13 11:06:27;;;;;;;15.60;8.50;;;18.50;99.90;;;;;;5094066;28;20875;-51
2023/10/13 11:09:03;;;;;;;18.53;8.10;;;18.60;99.90;;;;;;5093789;28;20422;-52
2023/10/13 11:11:35;;;;;;;16.97;8.57;;;18.60;99.90;;;;;;5093743;28;20428;-51
2023/10/13 11:14:13;;;;;;;16.43;8.63;;;18.70;99.90;;;;;;5093515;28;20501;-51
2023/10/13 11:16:50;;;;;;;17.07;8.20;;;18.80;70.70;;;;;;5093668;28;20457;-51
2023/10/13 11:19:16;;;;;;;15.70;8.77;;;18.80;85.30;;;;;;5094259;28;20432;-51
2023/10/13 11:21:42;;;;;;;16.70;8.97;;;18.80;91.00;;;;;;5093723;28;20412;-51
2023/10/13 11:24:11;;;;;;;20.57;8.53;;;18.90;99.90;;;;;;5093722;28;20478;-51
2023/10/13 11:26:49;;;;;;;12.67;8.87;;;19.00;99.90;;;;;;5093809;28;20176;-54
2023/10/13 11:29:21;;;;;;;14.37;8.60;;;19.10;63.10;;;;;;5093462;28;20403;-51
2023/10/13 11:31:53;;;;;;;13.40;8.80;;;19.20;17.70;;;;;;5093686;28;20403;-52
2023/10/13 11:34:19;;;;;;;18.20;8.70;;;19.20;3.20;;;;;;5093513;28;20563;-51
2023/10/13 11:36:45;;;;;;;19.40;8.97;;;19.30;1.00;;;;;;5093031;28;20553;-51
2023/10/13 11:39:17;;;;;;;17.17;8.67;;;19.30;1.00;;;;;;5093417;28;20423;-50
2023/10/13 11:41:50;;;;;;;11.30;7.70;;;19.30;1.00;;;;;;5093425;28;20609;-51
2023/10/13 11:51:42;;;;;;;15.20;7.20;;;19.60;1.00;;;;;;5093536;28;20439;-51
2023/10/13 11:54:08;;;;;;;16.93;7.17;;;19.70;1.00;;;;;;5093479;28;20173;-52
2023/10/13 11:56:34;;;;;;;12.73;6.73;;;19.70;1.00;;;;;;5092789;28;20466;-51
2023/10/13 11:59:01;;;;;;;13.63;7.60;;;19.80;1.00;;;;;;5093646;28;20274;-51
2023/10/13 12:12:22;;;;;;;11.40;6.67;;;20.10;99.90;;;;;;5093442;28;20411;-52
2023/10/13 12:14:57;;;;;;;13.33;6.67;;;20.10;99.90;;;;;;5093357;28;20488;-53
2023/10/13 12:17:25;;;;;;;23.10;7.20;;;20.20;99.90;;;;;;5093205;28;20466;-52
2023/10/13 12:19:57;;;;;;;14.57;5.83;;;20.20;1.00;;;;;;5093258;28;20423;-52
2023/10/13 12:22:35;;;;;;;10.53;6.30;;;20.20;1.00;;;;;;5093235;28;20415;-52
2023/10/13 12:25:04;;;;;;;13.33;6.00;;;20.20;1.00;;;;;;5093068;28;20497;-53
2023/10/13 12:27:45;;;;;;;15.77;6.63;;;20.10;99.90;;;;;;5095230;28;20407;-52
2023/10/13 12:30:13;;;;;;;13.47;6.20;;;20.10;99.90;;;;;;5097304;28;20521;-53
2023/10/13 12:32:44;;;;;;;9.40;6.00;;;20.10;99.90;;;;;;5096927;28;20515;-52
2023/10/13 12:53:52;;;;;;;15.00;5.70;;;20.50;1.00;;;;;;5096766;28;20881;-52
2023/10/13 12:56:25;;;;;;;17.53;6.10;;;20.50;1.00;;;;;;5096510;28;20463;-53
2023/10/13 12:58:52;;;;;;;18.80;6.20;;;20.60;27.30;;;;;;5096921;28;20430;-53
2023/10/13 13:01:21;;;;;;;19.27;6.70;;;20.60;99.90;;;;;;5095980;28;20432;-53
2023/10/13 13:03:55;;;;;;;11.47;6.93;;;20.70;1.00;;;;;;5096815;28;20423;-54
2023/10/13 13:06:25;;;;;;;15.33;5.93;;;20.70;99.90;;;;;;5096809;28;20411;-53
2023/10/13 13:08:52;;;;;;;13.73;7.10;;;20.70;99.90;;;;;;5096643;28;20822;-53
2023/10/13 13:11:17;;;;;;;11.00;5.63;;;20.70;28.80;;;;;;5096090;28;20927;-53
2023/10/13 13:13:46;;;;;;;12.93;6.73;;;20.80;1.00;;;;;;5095933;28;20415;-54
2023/10/13 13:16:12;;;;;;;16.80;6.43;;;20.70;1.00;;;;;;5095924;28;20697;-52
2023/10/13 13:18:37;;;;;;;15.20;6.67;;;20.70;1.00;;;;;;5095936;28;20422;-54
2023/10/13 13:21:06;;;;;;;16.83;6.60;;;20.70;1.00;;;;;;5095657;28;20174;-55
2023/10/13 13:23:32;;;;;;;19.60;7.03;;;20.60;1.00;;;;;;5096278;28;20218;-53
2023/10/13 13:25:57;;;;;;;14.97;6.90;;;20.70;1.00;;;;;;5095705;28;20566;-52
2023/10/13 13:28:28;;;;;;;15.80;7.10;;;20.70;99.90;;;;;;5096139;28;20849;-55
2023/10/13 13:30:54;;;;;;;16.60;6.50;;;20.80;1.00;;;;;;5096079;28;20427;-54
2023/10/13 13:33:24;;;;;;;14.63;6.40;;;21.30;1.00;;;;;;5095976;28;20416;-52
2023/10/13 13:35:53;;;;;;;16.30;6.10;;;21.70;1.00;;;;;;5095486;28;20217;-53
2023/10/13 13:38:22;;;;;;;13.10;6.03;;;22.20;1.00;;;;;;5095171;28;20420;-54
2023/10/13 13:40:53;;;;;;;17.30;6.00;;;22.40;99.90;;;;;;5095208;28;20424;-53
2023/10/13 13:44:13;;;;;;;16.00;7.20;;;22.30;69.10;;;;;;5095751;28;20418;-53
2023/10/13 13:46:11;;;;;;;26.77;7.00;;;22.10;56.20;;;;;;5092103;28;20768;-53
2023/10/13 13:48:38;;;;;;;15.93;6.57;;;21.70;63.30;;;;;;5095948;28;20425;-52
2023/10/13 13:51:19;;;;;;;18.13;6.80;;;21.50;62.10;;;;;;5095344;28;20211;-52
2023/10/13 13:53:45;;;;;;;13.30;6.33;;;21.30;84.40;;;;;;5095418;28;20891;-53
2023/10/13 13:56:18;;;;;;;15.23;6.73;;;21.20;91.60;;;;;;5095143;28;20455;-54
2023/10/13 13:58:55;;;;;;;18.43;6.73;;;21.20;99.90;;;;;;5095226;28;20396;-54
2023/10/13 14:01:21;;;;;;;11.23;6.23;;;21.10;99.40;;;;;;5095583;28;20423;-53
2023/10/13 14:03:50;;;;;;;16.10;6.93;;;21.10;97.20;;;;;;5095134;28;20446;-54
2023/10/13 14:06:27;;;;;;;15.80;6.60;;;21.00;82.20;;;;;;5095284;28;20938;-54
2023/10/13 14:08:59;;;;;;;13.90;6.50;;;21.00;90.30;;;;;;5094994;28;20414;-54
2023/10/13 14:14:12;;;;;;;10.10;6.77;;;20.80;94.80;;;;;;5095181;28;20460;-53
2023/10/13 14:16:45;;;;;;;20.43;6.13;;;20.80;55.20;;;;;;5095043;28;20455;-52
2023/10/13 14:19:11;;;;;;;21.20;7.30;;;20.80;70.50;;;;;;5095032;28;20456;-53
2023/10/13 14:21:38;;;;;;;12.97;6.53;;;20.80;67.80;;;;;;5094978;28;20420;-53
2023/10/13 14:24:12;;;;;;;16.87;6.73;;;20.80;65.00;;;;;;5094787;28;20411;-53
2023/10/13 14:26:39;;;;;;;24.10;7.30;;;20.80;59.10;;;;;;5095107;28;20452;-52
2023/10/13 14:29:14;;;;;;;12.93;6.90;;;20.80;46.30;;;;;;5094593;28;20837;-53
2023/10/13 14:31:40;;;;;;;16.60;6.67;;;20.70;55.10;;;;;;5094382;28;20857;-53
2023/10/13 14:34:09;;;;;;;21.47;7.03;;;20.70;53.20;;;;;;5094602;28;20419;-53
2023/10/13 14:36:35;;;;;;;15.10;7.10;;;20.70;38.00;;;;;;5094456;28;20951;-54
2023/10/13 14:39:02;;;;;;;17.07;6.90;;;20.70;43.80;;;;;;5094250;28;20423;-53
2023/10/13 14:41:29;;;;;;;15.63;7.53;;;20.70;57.50;;;;;;5094430;28;20442;-53
2023/10/13 14:44:04;;;;;;;16.47;7.00;;;20.60;70.10;;;;;;5094549;28;20506;-52
2023/10/13 14:46:30;;;;;;;19.30;6.63;;;20.50;99.50;;;;;;5094719;28;20412;-53
2023/10/13 14:48:56;;;;;;;16.10;7.00;;;20.60;99.90;;;;;;5093366;28;20418;-53
2023/10/13 14:51:21;;;;;;;16.67;8.07;;;20.70;99.90;;;;;;5093968;28;20182;-54
2023/10/13 14:53:48;;;;;;;16.23;7.60;;;20.70;99.90;;;;;;5094280;28;20855;-54
2023/10/13 14:56:15;;;;;;;15.93;7.67;;;20.70;99.90;;;;;;5094452;28;20259;-53
2023/10/13 14:58:44;;;;;;;12.47;7.50;;;20.60;99.90;;;;;;5094448;28;20506;-54
2023/10/13 15:01:18;;;;;;;21.20;8.17;;;20.60;96.70;;;;;;5094084;28;20416;-54
2023/10/13 15:03:44;;;;;;;20.83;7.70;;;20.60;99.90;;;;;;5094292;28;20399;-53
2023/10/13 15:06:28;;;;;;;18.83;8.20;;;20.50;92.20;;;;;;5094059;28;20416;-53
2023/10/13 15:08:56;;;;;;;16.00;8.03;;;20.50;83.30;;;;;;5094343;28;20400;-53
2023/10/13 15:11:26;;;;;;;19.43;7.60;;;20.50;57.90;;;;;;5094079;28;20416;-54
2023/10/13 15:13:59;;;;;;;20.30;7.87;;;20.50;54.90;;;;;;5094116;28;20428;-53
2023/10/13 15:16:26;;;;;;;16.40;7.43;;;20.50;22.50;;;;;;5093778;28;20467;-53
2023/10/13 15:18:53;;;;;;;19.10;7.53;;;20.70;2.60;;;;;;5093621;28;20984;-53
2023/10/13 15:21:21;;;;;;;16.33;8.33;;;20.60;2.00;;;;;;5093771;28;20476;-54
2023/10/13 15:23:47;;;;;;;20.80;7.43;;;20.60;1.00;;;;;;5093756;28;20892;-55
2023/10/13 15:26:14;;;;;;;16.80;7.50;;;20.70;1.00;;;;;;5093745;28;20523;-53
2023/10/13 15:28:48;;;;;;;15.40;7.07;;;20.80;1.00;;;;;;5093761;28;20489;-53
2023/10/13 15:31:37;;;;;;;22.37;7.93;;;20.80;1.00;;;;;;5093869;28;20408;-53
2023/10/13 15:34:12;;;;;;;16.23;7.20;;;20.90;1.00;;;;;;5093621;28;20408;-54
2023/10/13 15:36:44;;;;;;;14.30;6.53;;;20.90;1.00;;;;;;5093627;28;20931;-53
2023/10/13 15:39:11;;;;;;;23.30;7.57;;;20.90;1.00;;;;;;5093708;28;20404;-53
2023/10/13 15:41:40;;;;;;;21.07;8.60;;;20.90;1.00;;;;;;5093597;28;20522;-54
2023/10/13 15:44:10;;;;;;;15.43;7.40;;;20.90;1.00;;;;;;5093328;28;20415;-54
2023/10/13 15:46:36;;;;;;;13.83;7.90;;;21.00;1.00;;;;;;5093369;28;20416;-54
2023/10/13 15:49:05;;;;;;;31.60;8.83;;;21.00;1.00;;;;;;5093194;28;20415;-53
2023/10/13 15:51:34;;;;;;;18.17;8.07;;;21.00;1.00;;;;;;5093436;28;20447;-54
2023/10/13 15:54:02;;;;;;;20.90;7.93;;;20.90;1.00;;;;;;5093326;28;20438;-53
2023/10/13 15:56:31;;;;;;;21.80;7.47;;;20.90;1.00;;;;;;5093340;28;20462;-53
2023/10/13 15:59:06;;;;;;;16.70;7.90;;;21.00;1.00;;;;;;5093050;28;20968;-52
2023/10/13 16:01:33;;;;;;;16.47;7.40;;;21.00;1.00;;;;;;5095465;28;20407;-52
2023/10/13 16:03:59;;;;;;;15.43;7.20;;;21.00;1.00;;;;;;5097340;28;20415;-52
2023/10/13 16:06:25;;;;;;;22.13;8.40;;;21.00;1.00;;;;;;5097412;28;20411;-53
2023/10/13 16:08:51;;;;;;;24.33;7.77;;;21.00;1.00;;;;;;5097410;28;20933;-53
2023/10/13 16:11:18;;;;;;;18.97;7.87;;;20.90;1.00;;;;;;5097359;28;20185;-52
2023/10/13 16:13:44;;;;;;;18.27;7.90;;;20.90;1.00;;;;;;5097303;28;20412;-55
2023/10/13 16:16:23;;;;;;;16.63;7.37;;;20.90;1.00;;;;;;5097107;28;20454;-53
2023/10/13 16:18:50;;;;;;;17.33;7.00;;;21.00;1.00;;;;;;5097063;28;20426;-54
2023/10/13 16:21:16;;;;;;;18.47;7.47;;;21.00;1.00;;;;;;5097272;28;20464;-52
2023/10/13 16:23:47;;;;;;;18.50;7.73;;;20.90;1.00;;;;;;5096872;28;20459;-54
2023/10/13 16:26:21;;;;;;;13.97;7.27;;;20.90;1.00;;;;;;5096791;28;20962;-54
2023/10/13 16:28:47;;;;;;;19.53;7.03;;;20.90;1.00;;;;;;5097164;28;20411;-54